KDZB

Horseshoe Bay Resort Airport

Horseshoe Bay, Texas, USA
METAR KDZB 170155Z AUTO 00000KT 4SM -RA SCT013 BKN025 OVC042 07/07 A3005 RMK AO2 P0009 T00710071
Observed Flight Rules
Dec-17 @ 01:55 UTC (31 minutes ago) Marginal Visual Flight Rules
Wind Visibility Clouds Conditions
Calm 4 miles
  • Scattered at 1,300' AGL
  • Broken at 2,500' AGL
  • Overcast at 4,200' AGL
  • Light Rain
Temperatures Readings Precipitation
Current 7°C / 45°F
Dewpoint 7°C / 45°F
Humidity 100%
Altimeter 30.05" Hg
Pressure 1018 hPa
Elevation 334
Current Rain 0.09
METAR KDZB 170155Z AUTO 00000KT 4SM -RA SCT013 BKN025 OVC042 07/07 A3005 RMK AO2 P0009 T00710071
Observed Flight Rules
Dec-17 @ 01:55 UTC
(31 minutes ago)
MVFR
Wind Visibility
Calm 4 miles
Clouds
  • Scattered at 1,300' AGL
  • Broken at 2,500' AGL
  • Overcast at 4,200' AGL
Conditions
  • Light Rain
Temperature Dewpoint
7°C / 45°F 7°C / 45°F
Humidity Altimeter Pressure
100% 30.05" Hg 1018 hPa
Current Rain
0.09